sensor_id;sensor_type;location;lat;lon;timestamp;temperature;humidity
14095;DHT22;18096;48.142;16.290;2022-11-20T00:01:19;2.70;99.90
14095;DHT22;18096;48.142;16.290;2022-11-20T00:03:45;2.70;99.90
14095;DHT22;18096;48.142;16.290;2022-11-20T00:06:14;2.70;99.90
14095;DHT22;18096;48.142;16.290;2022-11-20T00:08:41;2.70;99.90
14095;DHT22;18096;48.142;16.290;2022-11-20T00:11:12;2.60;99.90
14095;DHT22;18096;48.142;16.290;2022-11-20T00:13:38;2.60;99.90
14095;DHT22;18096;48.142;16.290;2022-11-20T00:16:06;2.60;99.90
14095;DHT22;18096;48.142;16.290;2022-11-20T00:18:33;2.60;99.90
14095;DHT22;18096;48.142;16.290;2022-11-20T00:21:04;2.60;99.90
14095;DHT22;18096;48.142;16.290;2022-11-20T00:23:30;2.60;99.90
14095;DHT22;18096;48.142;16.290;2022-11-20T00:25:56;2.70;99.90
14095;DHT22;18096;48.142;16.290;2022-11-20T00:28:21;2.70;99.90
14095;DHT22;18096;48.142;16.290;2022-11-20T00:30:47;2.70;99.90
14095;DHT22;18096;48.142;16.290;2022-11-20T00:33:13;2.70;99.90
14095;DHT22;18096;48.142;16.290;2022-11-20T00:35:38;2.60;99.90
14095;DHT22;18096;48.142;16.290;2022-11-20T00:38:04;2.60;99.90
14095;DHT22;18096;48.142;16.290;2022-11-20T00:40:30;2.60;99.90
14095;DHT22;18096;48.142;16.290;2022-11-20T00:42:55;2.60;99.90
14095;DHT22;18096;48.142;16.290;2022-11-20T00:45:21;2.70;99.90
14095;DHT22;18096;48.142;16.290;2022-11-20T00:47:46;2.70;99.90
14095;DHT22;18096;48.142;16.290;2022-11-20T00:50:12;2.70;99.90
14095;DHT22;18096;48.142;16.290;2022-11-20T00:52:38;2.70;99.90
14095;DHT22;18096;48.142;16.290;2022-11-20T00:55:04;2.70;99.90
14095;DHT22;18096;48.142;16.290;2022-11-20T00:57:30;2.80;99.90
14095;DHT22;18096;48.142;16.290;2022-11-20T00:59:56;2.80;99.90
14095;DHT22;18096;48.142;16.290;2022-11-20T01:02:22;2.80;99.90
14095;DHT22;18096;48.142;16.290;2022-11-20T01:04:47;2.80;99.90
14095;DHT22;18096;48.142;16.290;2022-11-20T01:07:13;2.80;99.90
14095;DHT22;18096;48.142;16.290;2022-11-20T01:09:39;2.70;99.90
14095;DHT22;18096;48.142;16.290;2022-11-20T01:12:04;2.80;99.90
14095;DHT22;18096;48.142;16.290;2022-11-20T01:14:30;2.80;99.90
14095;DHT22;18096;48.142;16.290;2022-11-20T01:16:56;2.90;99.90
14095;DHT22;18096;48.142;16.290;2022-11-20T01:19:22;2.80;99.90
14095;DHT22;18096;48.142;16.290;2022-11-20T01:21:51;2.80;99.90
14095;DHT22;18096;48.142;16.290;2022-11-20T01:24:19;2.80;99.90
14095;DHT22;18096;48.142;16.290;2022-11-20T01:26:46;2.80;99.90
14095;DHT22;18096;48.142;16.290;2022-11-20T01:29:38;2.80;99.90
14095;DHT22;18096;48.142;16.290;2022-11-20T01:32:04;2.80;99.90
14095;DHT22;18096;48.142;16.290;2022-11-20T01:37:14;2.70;99.90
14095;DHT22;18096;48.142;16.290;2022-11-20T01:39:40;2.70;99.90
14095;DHT22;18096;48.142;16.290;2022-11-20T01:42:07;2.70;99.90
14095;DHT22;18096;48.142;16.290;2022-11-20T01:44:58;2.70;99.90
14095;DHT22;18096;48.142;16.290;2022-11-20T01:47:40;2.70;99.90
14095;DHT22;18096;48.142;16.290;2022-11-20T01:53:03;2.60;99.90
14095;DHT22;18096;48.142;16.290;2022-11-20T01:55:34;2.70;99.90
14095;DHT22;18096;48.142;16.290;2022-11-20T01:58:01;2.70;99.90
14095;DHT22;18096;48.142;16.290;2022-11-20T02:00:28;2.80;99.90
14095;DHT22;18096;48.142;16.290;2022-11-20T02:02:57;2.70;99.90
14095;DHT22;18096;48.142;16.290;2022-11-20T02:05:25;2.60;99.90
14095;DHT22;18096;48.142;16.290;2022-11-20T02:07:53;2.60;99.90
14095;DHT22;18096;48.142;16.290;2022-11-20T02:10:20;2.50;99.90
14095;DHT22;18096;48.142;16.290;2022-11-20T02:12:46;2.60;99.90
14095;DHT22;18096;48.142;16.290;2022-11-20T02:15:32;2.60;99.90
14095;DHT22;18096;48.142;16.290;2022-11-20T02:17:58;2.60;99.90
14095;DHT22;18096;48.142;16.290;2022-11-20T02:20:24;2.60;99.90
14095;DHT22;18096;48.142;16.290;2022-11-20T02:23:05;2.70;99.90
14095;DHT22;18096;48.142;16.290;2022-11-20T02:25:35;2.70;99.90
14095;DHT22;18096;48.142;16.290;2022-11-20T02:28:02;2.80;99.90
14095;DHT22;18096;48.142;16.290;2022-11-20T02:30:28;2.80;99.90
14095;DHT22;18096;48.142;16.290;2022-11-20T02:32:53;2.80;99.90
14095;DHT22;18096;48.142;16.290;2022-11-20T02:37:47;2.80;99.90
14095;DHT22;18096;48.142;16.290;2022-11-20T02:40:14;2.70;99.90
14095;DHT22;18096;48.142;16.290;2022-11-20T02:42:40;2.70;99.90
14095;DHT22;18096;48.142;16.290;2022-11-20T02:45:06;2.80;99.90
14095;DHT22;18096;48.142;16.290;2022-11-20T02:47:32;2.80;99.90
14095;DHT22;18096;48.142;16.290;2022-11-20T02:49:58;2.70;99.90
14095;DHT22;18096;48.142;16.290;2022-11-20T02:52:24;2.60;99.90
14095;DHT22;18096;48.142;16.290;2022-11-20T02:54:50;2.60;99.90
14095;DHT22;18096;48.142;16.290;2022-11-20T02:57:16;2.60;99.90
14095;DHT22;18096;48.142;16.290;2022-11-20T02:59:41;2.60;99.90
14095;DHT22;18096;48.142;16.290;2022-11-20T03:02:07;2.70;99.90
14095;DHT22;18096;48.142;16.290;2022-11-20T03:04:33;2.80;99.90
14095;DHT22;18096;48.142;16.290;2022-11-20T03:06:58;2.80;99.90
14095;DHT22;18096;48.142;16.290;2022-11-20T03:09:24;2.70;99.90
14095;DHT22;18096;48.142;16.290;2022-11-20T03:11:50;2.70;99.90
14095;DHT22;18096;48.142;16.290;2022-11-20T03:14:15;2.70;99.90
14095;DHT22;18096;48.142;16.290;2022-11-20T03:16:41;2.70;99.90
14095;DHT22;18096;48.142;16.290;2022-11-20T03:19:07;2.70;99.90
14095;DHT22;18096;48.142;16.290;2022-11-20T03:21:35;2.70;99.90
14095;DHT22;18096;48.142;16.290;2022-11-20T03:24:02;2.60;99.90
14095;DHT22;18096;48.142;16.290;2022-11-20T03:26:28;2.60;99.90
14095;DHT22;18096;48.142;16.290;2022-11-20T03:28:56;2.50;99.90
14095;DHT22;18096;48.142;16.290;2022-11-20T03:31:24;2.50;99.90
14095;DHT22;18096;48.142;16.290;2022-11-20T03:33:50;2.60;99.90
14095;DHT22;18096;48.142;16.290;2022-11-20T03:36:18;2.60;99.90
14095;DHT22;18096;48.142;16.290;2022-11-20T03:38:45;2.70;99.90
14095;DHT22;18096;48.142;16.290;2022-11-20T03:41:12;2.70;99.90
14095;DHT22;18096;48.142;16.290;2022-11-20T03:43:39;2.70;99.90
14095;DHT22;18096;48.142;16.290;2022-11-20T03:46:05;2.60;99.90
14095;DHT22;18096;48.142;16.290;2022-11-20T03:48:31;2.70;99.90
14095;DHT22;18096;48.142;16.290;2022-11-20T03:53:33;2.70;99.90
14095;DHT22;18096;48.142;16.290;2022-11-20T03:55:59;2.70;99.90
14095;DHT22;18096;48.142;16.290;2022-11-20T03:58:24;2.70;99.90
14095;DHT22;18096;48.142;16.290;2022-11-20T04:00:50;2.70;99.90
14095;DHT22;18096;48.142;16.290;2022-11-20T04:03:15;2.70;99.90
14095;DHT22;18096;48.142;16.290;2022-11-20T04:05:41;2.60;99.90
14095;DHT22;18096;48.142;16.290;2022-11-20T04:08:07;2.60;99.90
14095;DHT22;18096;48.142;16.290;2022-11-20T04:10:33;2.70;99.90
14095;DHT22;18096;48.142;16.290;2022-11-20T04:12:58;2.70;99.90
14095;DHT22;18096;48.142;16.290;2022-11-20T04:15:24;2.70;99.90
14095;DHT22;18096;48.142;16.290;2022-11-20T04:17:49;2.70;99.90
14095;DHT22;18096;48.142;16.290;2022-11-20T04:20:15;2.80;99.90
14095;DHT22;18096;48.142;16.290;2022-11-20T04:22:41;2.70;99.90
14095;DHT22;18096;48.142;16.290;2022-11-20T04:25:07;2.70;99.90
14095;DHT22;18096;48.142;16.290;2022-11-20T04:27:32;2.60;99.90
14095;DHT22;18096;48.142;16.290;2022-11-20T04:29:58;2.60;99.90
14095;DHT22;18096;48.142;16.290;2022-11-20T04:32:23;2.60;99.90
14095;DHT22;18096;48.142;16.290;2022-11-20T04:34:49;2.60;99.90
14095;DHT22;18096;48.142;16.290;2022-11-20T04:37:15;2.60;99.90
14095;DHT22;18096;48.142;16.290;2022-11-20T04:39:40;2.60;99.90
14095;DHT22;18096;48.142;16.290;2022-11-20T04:42:07;2.60;99.90
14095;DHT22;18096;48.142;16.290;2022-11-20T04:44:55;2.60;99.90
14095;DHT22;18096;48.142;16.290;2022-11-20T04:47:20;2.60;99.90
14095;DHT22;18096;48.142;16.290;2022-11-20T04:49:46;2.60;99.90
14095;DHT22;18096;48.142;16.290;2022-11-20T04:52:12;2.60;99.90
14095;DHT22;18096;48.142;16.290;2022-11-20T04:54:38;2.70;99.90
14095;DHT22;18096;48.142;16.290;2022-11-20T04:57:04;2.60;99.90
14095;DHT22;18096;48.142;16.290;2022-11-20T04:59:30;2.60;99.90
14095;DHT22;18096;48.142;16.290;2022-11-20T05:01:55;2.60;99.90
14095;DHT22;18096;48.142;16.290;2022-11-20T05:04:21;2.70;99.90
14095;DHT22;18096;48.142;16.290;2022-11-20T05:06:47;2.70;99.90
14095;DHT22;18096;48.142;16.290;2022-11-20T05:09:12;2.70;99.90
14095;DHT22;18096;48.142;16.290;2022-11-20T05:11:38;2.70;99.90
14095;DHT22;18096;48.142;16.290;2022-11-20T05:14:04;2.70;99.90
14095;DHT22;18096;48.142;16.290;2022-11-20T05:16:29;2.60;99.90
14095;DHT22;18096;48.142;16.290;2022-11-20T05:18:55;2.70;99.90
14095;DHT22;18096;48.142;16.290;2022-11-20T05:21:21;2.70;99.90
14095;DHT22;18096;48.142;16.290;2022-11-20T05:23:48;2.70;99.90
14095;DHT22;18096;48.142;16.290;2022-11-20T05:26:16;2.80;99.90
14095;DHT22;18096;48.142;16.290;2022-11-20T05:28:42;2.80;99.90
14095;DHT22;18096;48.142;16.290;2022-11-20T05:31:11;2.70;99.90
14095;DHT22;18096;48.142;16.290;2022-11-20T05:33:40;2.70;99.90
14095;DHT22;18096;48.142;16.290;2022-11-20T05:36:06;2.70;99.90
14095;DHT22;18096;48.142;16.290;2022-11-20T05:38:32;2.70;99.90
14095;DHT22;18096;48.142;16.290;2022-11-20T05:41:19;2.70;99.90
14095;DHT22;18096;48.142;16.290;2022-11-20T05:43:46;2.70;99.90
14095;DHT22;18096;48.142;16.290;2022-11-20T05:46:13;2.70;99.90
14095;DHT22;18096;48.142;16.290;2022-11-20T05:48:41;2.70;99.90
14095;DHT22;18096;48.142;16.290;2022-11-20T05:51:08;2.70;99.90
14095;DHT22;18096;48.142;16.290;2022-11-20T05:53:35;2.70;99.90
14095;DHT22;18096;48.142;16.290;2022-11-20T05:56:03;2.70;99.90
14095;DHT22;18096;48.142;16.290;2022-11-20T05:58:30;2.70;99.90
14095;DHT22;18096;48.142;16.290;2022-11-20T06:01:11;2.70;99.90
14095;DHT22;18096;48.142;16.290;2022-11-20T06:03:37;2.70;99.90
14095;DHT22;18096;48.142;16.290;2022-11-20T06:06:04;2.70;99.90
14095;DHT22;18096;48.142;16.290;2022-11-20T06:08:31;2.70;99.90
14095;DHT22;18096;48.142;16.290;2022-11-20T06:10:57;2.70;99.90
14095;DHT22;18096;48.142;16.290;2022-11-20T06:13:23;2.70;99.90
14095;DHT22;18096;48.142;16.290;2022-11-20T06:15:52;2.80;99.90
14095;DHT22;18096;48.142;16.290;2022-11-20T06:18:19;2.80;99.90
14095;DHT22;18096;48.142;16.290;2022-11-20T06:20:45;2.80;99.90
14095;DHT22;18096;48.142;16.290;2022-11-20T06:23:11;2.80;99.90
14095;DHT22;18096;48.142;16.290;2022-11-20T06:25:41;2.80;99.90
14095;DHT22;18096;48.142;16.290;2022-11-20T06:28:08;2.70;99.90
14095;DHT22;18096;48.142;16.290;2022-11-20T06:30:35;2.80;99.90
14095;DHT22;18096;48.142;16.290;2022-11-20T06:33:01;2.70;99.90
14095;DHT22;18096;48.142;16.290;2022-11-20T06:35:27;2.70;99.90
14095;DHT22;18096;48.142;16.290;2022-11-20T06:37:52;2.70;99.90
14095;DHT22;18096;48.142;16.290;2022-11-20T06:40:18;2.70;99.90
14095;DHT22;18096;48.142;16.290;2022-11-20T06:42:44;2.70;99.90
14095;DHT22;18096;48.142;16.290;2022-11-20T06:45:10;2.70;99.90
14095;DHT22;18096;48.142;16.290;2022-11-20T06:47:36;2.70;99.90
14095;DHT22;18096;48.142;16.290;2022-11-20T06:50:01;2.80;99.90
14095;DHT22;18096;48.142;16.290;2022-11-20T06:52:27;2.80;99.90
14095;DHT22;18096;48.142;16.290;2022-11-20T06:54:52;2.80;99.90
14095;DHT22;18096;48.142;16.290;2022-11-20T06:57:18;2.80;99.90
14095;DHT22;18096;48.142;16.290;2022-11-20T06:59:44;2.70;99.90
14095;DHT22;18096;48.142;16.290;2022-11-20T07:02:10;2.80;99.90
14095;DHT22;18096;48.142;16.290;2022-11-20T07:04:37;2.80;99.90
14095;DHT22;18096;48.142;16.290;2022-11-20T07:07:03;2.80;99.90
14095;DHT22;18096;48.142;16.290;2022-11-20T07:09:28;2.80;99.90
14095;DHT22;18096;48.142;16.290;2022-11-20T07:11:54;2.80;99.90
14095;DHT22;18096;48.142;16.290;2022-11-20T07:14:20;2.80;99.90
14095;DHT22;18096;48.142;16.290;2022-11-20T07:16:45;2.80;99.90
14095;DHT22;18096;48.142;16.290;2022-11-20T07:19:11;2.80;99.90
14095;DHT22;18096;48.142;16.290;2022-11-20T07:21:36;2.80;99.90
14095;DHT22;18096;48.142;16.290;2022-11-20T07:24:02;2.80;99.90
14095;DHT22;18096;48.142;16.290;2022-11-20T07:26:28;2.80;99.90
14095;DHT22;18096;48.142;16.290;2022-11-20T07:28:53;2.80;99.90
14095;DHT22;18096;48.142;16.290;2022-11-20T07:31:19;2.80;99.90
14095;DHT22;18096;48.142;16.290;2022-11-20T07:33:45;2.90;99.90
14095;DHT22;18096;48.142;16.290;2022-11-20T07:36:11;2.90;99.90
14095;DHT22;18096;48.142;16.290;2022-11-20T07:38:37;2.90;99.90
14095;DHT22;18096;48.142;16.290;2022-11-20T07:41:03;2.90;99.90
14095;DHT22;18096;48.142;16.290;2022-11-20T07:43:29;2.90;99.90
14095;DHT22;18096;48.142;16.290;2022-11-20T07:45:56;2.90;99.90
14095;DHT22;18096;48.142;16.290;2022-11-20T07:48:22;2.90;99.90
14095;DHT22;18096;48.142;16.290;2022-11-20T07:50:48;3.00;99.90
14095;DHT22;18096;48.142;16.290;2022-11-20T07:53:13;3.00;99.90
14095;DHT22;18096;48.142;16.290;2022-11-20T07:55:39;3.00;99.90
14095;DHT22;18096;48.142;16.290;2022-11-20T07:58:05;3.00;99.90
14095;DHT22;18096;48.142;16.290;2022-11-20T08:00:31;3.00;99.90
14095;DHT22;18096;48.142;16.290;2022-11-20T08:02:56;3.10;99.90
14095;DHT22;18096;48.142;16.290;2022-11-20T08:05:22;3.10;99.90
14095;DHT22;18096;48.142;16.290;2022-11-20T08:07:48;3.10;99.90
14095;DHT22;18096;48.142;16.290;2022-11-20T08:10:15;3.00;99.90
14095;DHT22;18096;48.142;16.290;2022-11-20T08:12:49;3.10;99.90
14095;DHT22;18096;48.142;16.290;2022-11-20T08:15:33;3.00;99.90
14095;DHT22;18096;48.142;16.290;2022-11-20T08:18:04;3.10;99.90
14095;DHT22;18096;48.142;16.290;2022-11-20T08:20:31;3.00;99.90
14095;DHT22;18096;48.142;16.290;2022-11-20T08:23:04;3.00;99.90
14095;DHT22;18096;48.142;16.290;2022-11-20T08:25:37;3.10;99.90
14095;DHT22;18096;48.142;16.290;2022-11-20T08:28:05;3.10;99.90
14095;DHT22;18096;48.142;16.290;2022-11-20T08:30:32;3.10;99.90
14095;DHT22;18096;48.142;16.290;2022-11-20T08:33:03;3.10;99.90
14095;DHT22;18096;48.142;16.290;2022-11-20T08:35:29;3.10;99.90
14095;DHT22;18096;48.142;16.290;2022-11-20T08:37:57;3.10;99.90
14095;DHT22;18096;48.142;16.290;2022-11-20T08:40:23;3.10;99.90
14095;DHT22;18096;48.142;16.290;2022-11-20T08:42:50;3.10;99.90
14095;DHT22;18096;48.142;16.290;2022-11-20T08:45:17;3.10;99.90
14095;DHT22;18096;48.142;16.290;2022-11-20T08:47:44;3.10;99.90
14095;DHT22;18096;48.142;16.290;2022-11-20T08:50:12;3.10;99.90
14095;DHT22;18096;48.142;16.290;2022-11-20T08:52:38;3.10;99.90
14095;DHT22;18096;48.142;16.290;2022-11-20T08:55:04;3.00;99.90
14095;DHT22;18096;48.142;16.290;2022-11-20T08:57:34;3.10;99.90
14095;DHT22;18096;48.142;16.290;2022-11-20T09:00:00;3.10;99.90
14095;DHT22;18096;48.142;16.290;2022-11-20T09:02:26;3.10;99.90
14095;DHT22;18096;48.142;16.290;2022-11-20T09:04:52;3.10;99.90
14095;DHT22;18096;48.142;16.290;2022-11-20T09:07:19;3.20;99.90
14095;DHT22;18096;48.142;16.290;2022-11-20T09:09:45;3.20;99.90
14095;DHT22;18096;48.142;16.290;2022-11-20T09:12:10;3.30;99.90
14095;DHT22;18096;48.142;16.290;2022-11-20T09:14:36;3.30;99.90
14095;DHT22;18096;48.142;16.290;2022-11-20T09:17:02;3.30;99.90
14095;DHT22;18096;48.142;16.290;2022-11-20T09:19:27;3.40;99.90
14095;DHT22;18096;48.142;16.290;2022-11-20T09:21:53;3.50;99.90
14095;DHT22;18096;48.142;16.290;2022-11-20T09:24:19;3.50;99.90
14095;DHT22;18096;48.142;16.290;2022-11-20T09:26:46;3.50;99.90
14095;DHT22;18096;48.142;16.290;2022-11-20T09:29:12;3.60;99.90
14095;DHT22;18096;48.142;16.290;2022-11-20T09:31:38;3.60;99.90
14095;DHT22;18096;48.142;16.290;2022-11-20T09:34:03;3.60;99.90
14095;DHT22;18096;48.142;16.290;2022-11-20T09:36:29;3.60;99.90
14095;DHT22;18096;48.142;16.290;2022-11-20T09:38:55;3.60;99.90
14095;DHT22;18096;48.142;16.290;2022-11-20T09:46:57;3.80;99.90
14095;DHT22;18096;48.142;16.290;2022-11-20T09:54:56;3.90;99.90
14095;DHT22;18096;48.142;16.290;2022-11-20T09:57:27;3.90;99.90
14095;DHT22;18096;48.142;16.290;2022-11-20T10:00:00;3.80;99.90
14095;DHT22;18096;48.142;16.290;2022-11-20T10:02:33;3.80;99.90
14095;DHT22;18096;48.142;16.290;2022-11-20T10:05:23;3.70;99.90
14095;DHT22;18096;48.142;16.290;2022-11-20T10:10:36;3.80;99.90
14095;DHT22;18096;48.142;16.290;2022-11-20T10:13:28;3.80;99.90
14095;DHT22;18096;48.142;16.290;2022-11-20T10:29:15;4.00;99.90
14095;DHT22;18096;48.142;16.290;2022-11-20T10:31:43;4.10;99.90
14095;DHT22;18096;48.142;16.290;2022-11-20T10:34:25;4.10;99.90
14095;DHT22;18096;48.142;16.290;2022-11-20T10:37:26;4.20;99.90
14095;DHT22;18096;48.142;16.290;2022-11-20T10:42:34;4.30;99.90
14095;DHT22;18096;48.142;16.290;2022-11-20T10:45:19;4.30;99.90
14095;DHT22;18096;48.142;16.290;2022-11-20T10:47:47;4.40;99.90
14095;DHT22;18096;48.142;16.290;2022-11-20T10:50:18;4.40;99.90
14095;DHT22;18096;48.142;16.290;2022-11-20T10:56:09;4.40;99.90
14095;DHT22;18096;48.142;16.290;2022-11-20T11:01:18;4.40;99.90
14095;DHT22;18096;48.142;16.290;2022-11-20T11:03:46;4.40;99.90
14095;DHT22;18096;48.142;16.290;2022-11-20T11:06:29;4.50;99.90
14095;DHT22;18096;48.142;16.290;2022-11-20T11:09:01;4.50;99.90
14095;DHT22;18096;48.142;16.290;2022-11-20T11:11:33;4.60;99.90
14095;DHT22;18096;48.142;16.290;2022-11-20T11:14:12;4.70;99.90
14095;DHT22;18096;48.142;16.290;2022-11-20T11:16:57;4.70;99.90
14095;DHT22;18096;48.142;16.290;2022-11-20T11:19:24;4.80;99.90
14095;DHT22;18096;48.142;16.290;2022-11-20T11:21:52;4.80;99.90
14095;DHT22;18096;48.142;16.290;2022-11-20T11:24:24;4.90;99.90
14095;DHT22;18096;48.142;16.290;2022-11-20T11:26:59;4.90;99.90
14095;DHT22;18096;48.142;16.290;2022-11-20T11:29:30;5.00;99.90
14095;DHT22;18096;48.142;16.290;2022-11-20T11:32:06;5.00;99.90
14095;DHT22;18096;48.142;16.290;2022-11-20T11:34:33;5.00;99.90
14095;DHT22;18096;48.142;16.290;2022-11-20T11:36:59;5.00;99.90
14095;DHT22;18096;48.142;16.290;2022-11-20T11:39:27;5.10;99.90
14095;DHT22;18096;48.142;16.290;2022-11-20T11:41:54;5.10;99.90
14095;DHT22;18096;48.142;16.290;2022-11-20T11:44:29;5.10;99.90
14095;DHT22;18096;48.142;16.290;2022-11-20T11:52:58;5.20;99.90
14095;DHT22;18096;48.142;16.290;2022-11-20T11:55:38;5.20;99.90
14095;DHT22;18096;48.142;16.290;2022-11-20T12:04:07;5.20;99.90
14095;DHT22;18096;48.142;16.290;2022-11-20T12:06:37;5.30;99.90
14095;DHT22;18096;48.142;16.290;2022-11-20T12:09:08;5.30;99.90
14095;DHT22;18096;48.142;16.290;2022-11-20T12:14:48;5.30;99.90
14095;DHT22;18096;48.142;16.290;2022-11-20T12:17:16;5.30;99.90
14095;DHT22;18096;48.142;16.290;2022-11-20T12:19:43;5.20;99.90
14095;DHT22;18096;48.142;16.290;2022-11-20T12:25:10;5.20;99.90
14095;DHT22;18096;48.142;16.290;2022-11-20T12:30:32;5.30;99.90
14095;DHT22;18096;48.142;16.290;2022-11-20T12:33:33;5.30;99.90
14095;DHT22;18096;48.142;16.290;2022-11-20T13:01:52;5.40;99.90
14095;DHT22;18096;48.142;16.290;2022-11-20T13:07:11;5.50;99.90
14095;DHT22;18096;48.142;16.290;2022-11-20T13:09:42;5.50;99.90
14095;DHT22;18096;48.142;16.290;2022-11-20T13:17:36;5.60;99.90
14095;DHT22;18096;48.142;16.290;2022-11-20T13:20:06;5.60;99.90
14095;DHT22;18096;48.142;16.290;2022-11-20T13:22:52;5.70;99.90
14095;DHT22;18096;48.142;16.290;2022-11-20T13:25:31;5.80;99.90
14095;DHT22;18096;48.142;16.290;2022-11-20T13:28:00;5.90;99.90
14095;DHT22;18096;48.142;16.290;2022-11-20T13:30:27;5.90;99.90
14095;DHT22;18096;48.142;16.290;2022-11-20T13:35:35;5.90;99.90
14095;DHT22;18096;48.142;16.290;2022-11-20T13:38:05;6.00;99.90
14095;DHT22;18096;48.142;16.290;2022-11-20T13:40:32;6.00;99.90
14095;DHT22;18096;48.142;16.290;2022-11-20T13:43:15;6.10;99.90
14095;DHT22;18096;48.142;16.290;2022-11-20T13:46:04;6.10;99.90
14095;DHT22;18096;48.142;16.290;2022-11-20T13:48:44;6.20;99.90
14095;DHT22;18096;48.142;16.290;2022-11-20T13:54:21;6.20;99.90
14095;DHT22;18096;48.142;16.290;2022-11-20T14:01:46;6.30;99.90
14095;DHT22;18096;48.142;16.290;2022-11-20T14:04:18;6.30;99.90
14095;DHT22;18096;48.142;16.290;2022-11-20T14:06:47;6.30;99.90
14095;DHT22;18096;48.142;16.290;2022-11-20T14:09:34;6.30;99.90
14095;DHT22;18096;48.142;16.290;2022-11-20T14:12:02;6.30;99.90
14095;DHT22;18096;48.142;16.290;2022-11-20T14:14:30;6.30;99.90
14095;DHT22;18096;48.142;16.290;2022-11-20T14:17:20;6.30;99.90
14095;DHT22;18096;48.142;16.290;2022-11-20T14:19:48;6.20;99.90
14095;DHT22;18096;48.142;16.290;2022-11-20T14:22:23;6.30;99.90
14095;DHT22;18096;48.142;16.290;2022-11-20T14:25:05;6.30;99.90
14095;DHT22;18096;48.142;16.290;2022-11-20T14:27:41;6.30;99.90
14095;DHT22;18096;48.142;16.290;2022-11-20T14:30:21;6.20;99.90
14095;DHT22;18096;48.142;16.290;2022-11-20T14:32:48;6.10;99.90
14095;DHT22;18096;48.142;16.290;2022-11-20T14:35:28;6.10;99.90
14095;DHT22;18096;48.142;16.290;2022-11-20T14:37:55;6.10;99.90
14095;DHT22;18096;48.142;16.290;2022-11-20T14:42:49;6.00;99.90
14095;DHT22;18096;48.142;16.290;2022-11-20T14:45:16;6.00;99.90
14095;DHT22;18096;48.142;16.290;2022-11-20T14:47:43;6.00;99.90
14095;DHT22;18096;48.142;16.290;2022-11-20T14:50:20;6.00;99.90
14095;DHT22;18096;48.142;16.290;2022-11-20T14:55:37;5.90;99.90
14095;DHT22;18096;48.142;16.290;2022-11-20T14:58:23;5.90;99.90
14095;DHT22;18096;48.142;16.290;2022-11-20T15:00:56;5.80;99.90
14095;DHT22;18096;48.142;16.290;2022-11-20T15:03:22;5.80;99.90
14095;DHT22;18096;48.142;16.290;2022-11-20T15:05:49;5.70;99.90
14095;DHT22;18096;48.142;16.290;2022-11-20T15:08:16;5.70;99.90
14095;DHT22;18096;48.142;16.290;2022-11-20T15:10:48;5.60;99.90
14095;DHT22;18096;48.142;16.290;2022-11-20T15:13:36;5.60;99.90
14095;DHT22;18096;48.142;16.290;2022-11-20T15:16:03;5.60;99.90
14095;DHT22;18096;48.142;16.290;2022-11-20T15:18:41;5.50;99.90
14095;DHT22;18096;48.142;16.290;2022-11-20T15:21:12;5.40;99.90
14095;DHT22;18096;48.142;16.290;2022-11-20T15:23:39;5.40;99.90
14095;DHT22;18096;48.142;16.290;2022-11-20T15:26:06;5.40;99.90
14095;DHT22;18096;48.142;16.290;2022-11-20T15:28:40;5.40;99.90
14095;DHT22;18096;48.142;16.290;2022-11-20T15:31:09;5.30;99.90
14095;DHT22;18096;48.142;16.290;2022-11-20T15:33:37;5.30;99.90
14095;DHT22;18096;48.142;16.290;2022-11-20T15:36:03;5.30;99.90
14095;DHT22;18096;48.142;16.290;2022-11-20T15:38:29;5.20;99.90
14095;DHT22;18096;48.142;16.290;2022-11-20T15:40:56;5.20;99.90
14095;DHT22;18096;48.142;16.290;2022-11-20T15:43:22;5.20;99.90
14095;DHT22;18096;48.142;16.290;2022-11-20T15:45:59;5.20;99.90
14095;DHT22;18096;48.142;16.290;2022-11-20T15:48:40;5.20;99.90
14095;DHT22;18096;48.142;16.290;2022-11-20T15:51:11;5.10;99.90
14095;DHT22;18096;48.142;16.290;2022-11-20T15:53:43;5.10;99.90
14095;DHT22;18096;48.142;16.290;2022-11-20T15:56:12;5.10;99.90
14095;DHT22;18096;48.142;16.290;2022-11-20T15:58:38;5.10;99.90
14095;DHT22;18096;48.142;16.290;2022-11-20T16:01:05;5.00;99.90
14095;DHT22;18096;48.142;16.290;2022-11-20T16:03:31;5.00;99.90
14095;DHT22;18096;48.142;16.290;2022-11-20T16:05:57;4.90;99.90
14095;DHT22;18096;48.142;16.290;2022-11-20T16:08:23;4.90;99.90
14095;DHT22;18096;48.142;16.290;2022-11-20T16:10:49;4.90;99.90
14095;DHT22;18096;48.142;16.290;2022-11-20T16:13:16;4.80;99.90
14095;DHT22;18096;48.142;16.290;2022-11-20T16:16:05;4.80;99.90
14095;DHT22;18096;48.142;16.290;2022-11-20T16:18:33;4.70;99.90
14095;DHT22;18096;48.142;16.290;2022-11-20T16:20:59;4.70;99.90
14095;DHT22;18096;48.142;16.290;2022-11-20T16:23:25;4.70;99.90
14095;DHT22;18096;48.142;16.290;2022-11-20T16:25:51;4.60;99.90
14095;DHT22;18096;48.142;16.290;2022-11-20T16:28:18;4.60;99.90
14095;DHT22;18096;48.142;16.290;2022-11-20T16:30:46;4.50;99.90
14095;DHT22;18096;48.142;16.290;2022-11-20T16:33:14;4.50;99.90
14095;DHT22;18096;48.142;16.290;2022-11-20T16:35:41;4.50;99.90
14095;DHT22;18096;48.142;16.290;2022-11-20T16:38:07;4.40;99.90
14095;DHT22;18096;48.142;16.290;2022-11-20T16:40:35;4.40;99.90
14095;DHT22;18096;48.142;16.290;2022-11-20T16:43:09;4.40;99.90
14095;DHT22;18096;48.142;16.290;2022-11-20T16:45:41;4.40;99.90
14095;DHT22;18096;48.142;16.290;2022-11-20T16:48:11;4.30;99.90
14095;DHT22;18096;48.142;16.290;2022-11-20T16:50:45;4.30;99.90
14095;DHT22;18096;48.142;16.290;2022-11-20T16:53:12;4.40;99.90
14095;DHT22;18096;48.142;16.290;2022-11-20T16:55:38;4.40;99.90
14095;DHT22;18096;48.142;16.290;2022-11-20T16:58:04;4.50;99.90
14095;DHT22;18096;48.142;16.290;2022-11-20T17:00:30;4.50;99.90
14095;DHT22;18096;48.142;16.290;2022-11-20T17:02:56;4.60;99.90
14095;DHT22;18096;48.142;16.290;2022-11-20T17:05:24;4.60;99.90
14095;DHT22;18096;48.142;16.290;2022-11-20T17:07:50;4.50;99.90
14095;DHT22;18096;48.142;16.290;2022-11-20T17:10:16;4.50;99.90
14095;DHT22;18096;48.142;16.290;2022-11-20T17:12:42;4.40;99.90
14095;DHT22;18096;48.142;16.290;2022-11-20T17:15:08;4.40;99.90
14095;DHT22;18096;48.142;16.290;2022-11-20T17:17:34;4.30;99.90
14095;DHT22;18096;48.142;16.290;2022-11-20T17:20:00;4.30;99.90
14095;DHT22;18096;48.142;16.290;2022-11-20T17:22:26;4.30;99.90
14095;DHT22;18096;48.142;16.290;2022-11-20T17:24:55;4.20;99.90
14095;DHT22;18096;48.142;16.290;2022-11-20T17:27:21;4.30;99.90
14095;DHT22;18096;48.142;16.290;2022-11-20T17:29:48;4.20;99.90
14095;DHT22;18096;48.142;16.290;2022-11-20T17:32:15;4.20;99.90
14095;DHT22;18096;48.142;16.290;2022-11-20T17:34:41;4.20;99.90
14095;DHT22;18096;48.142;16.290;2022-11-20T17:37:07;4.20;99.90